createdAt,value
2023-02-18T00:00:21.971Z,13.20
2023-02-18T00:02:50.325Z,15.23
2023-02-18T00:05:18.292Z,13.23
2023-02-18T00:07:45.202Z,12.65
2023-02-18T00:10:14.110Z,12.18
2023-02-18T00:12:40.842Z,14.18
2023-02-18T00:15:09.538Z,14.25
2023-02-18T00:17:36.417Z,13.93
2023-02-18T00:20:04.189Z,11.95
2023-02-18T00:22:30.873Z,15.48
2023-02-18T00:24:57.431Z,19.88
2023-02-18T00:27:24.198Z,15.38
2023-02-18T00:29:50.740Z,18.60
2023-02-18T00:32:17.339Z,17.65
2023-02-18T00:34:43.925Z,17.80
2023-02-18T00:37:10.463Z,21.65
2023-02-18T00:39:37.122Z,14.65
2023-02-18T00:42:03.863Z,19.63
2023-02-18T00:44:30.387Z,16.55
2023-02-18T00:46:57.351Z,19.90
2023-02-18T00:49:23.989Z,19.33
2023-02-18T00:51:50.639Z,17.73
2023-02-18T00:54:17.240Z,20.00
2023-02-18T00:56:43.875Z,14.10
2023-02-18T00:59:10.532Z,15.43
2023-02-18T01:01:37.688Z,15.85
2023-02-18T01:04:04.518Z,16.75
2023-02-18T01:06:31.873Z,15.20
2023-02-18T01:08:58.439Z,16.80
2023-02-18T01:11:25.374Z,15.57
2023-02-18T01:13:51.999Z,18.10
2023-02-18T01:16:18.899Z,21.13
2023-02-18T01:18:46.144Z,18.85
2023-02-18T01:21:12.930Z,22.13
2023-02-18T01:23:41.489Z,18.33
2023-02-18T01:26:09.916Z,20.17
2023-02-18T01:28:38.760Z,17.90
2023-02-18T01:31:12.399Z,19.13
2023-02-18T01:33:39.609Z,18.92
2023-02-18T01:36:07.602Z,18.58
2023-02-18T01:38:34.633Z,22.13
2023-02-18T01:41:01.505Z,21.50
2023-02-18T01:43:29.046Z,19.60
2023-02-18T01:46:00.335Z,22.48
2023-02-18T01:48:41.289Z,20.88
2023-02-18T01:51:14.007Z,22.17
2023-02-18T01:53:47.691Z,25.17
2023-02-18T01:56:20.500Z,20.85
2023-02-18T01:58:48.083Z,20.08
2023-02-18T02:01:14.886Z,21.25
2023-02-18T02:03:41.556Z,24.30
2023-02-18T02:06:18.659Z,20.65
2023-02-18T02:08:51.284Z,29.45
2023-02-18T02:11:20.759Z,22.45
2023-02-18T02:14:11.970Z,23.55
2023-02-18T02:17:01.771Z,31.00
2023-02-18T02:20:05.995Z,27.48
2023-02-18T02:22:57.604Z,30.05
2023-02-18T02:26:04.361Z,27.80
2023-02-18T02:28:49.046Z,29.00
2023-02-18T02:31:40.371Z,28.00
2023-02-18T02:34:38.060Z,30.48
2023-02-18T02:37:28.284Z,24.30
2023-02-18T02:40:15.118Z,26.23
2023-02-18T02:43:07.956Z,27.63
2023-02-18T02:45:41.778Z,20.20
2023-02-18T02:48:30.333Z,22.77
2023-02-18T02:50:56.849Z,20.58
2023-02-18T02:53:28.724Z,26.67
2023-02-18T02:55:56.131Z,22.70
2023-02-18T02:58:23.889Z,30.35
2023-02-18T03:01:07.874Z,27.70
2023-02-18T03:04:05.250Z,19.00
2023-02-18T03:06:57.867Z,21.95
2023-02-18T03:09:30.577Z,21.77
2023-02-18T03:12:16.666Z,22.73
2023-02-18T03:15:05.189Z,27.98
2023-02-18T03:17:46.091Z,22.45
2023-02-18T03:20:35.381Z,22.73
2023-02-18T03:23:07.060Z,16.13
2023-02-18T03:25:36.702Z,19.30
2023-02-18T03:28:09.751Z,20.73
2023-02-18T03:30:57.001Z,17.35
2023-02-18T03:33:28.719Z,17.13
2023-02-18T03:35:57.109Z,15.93
2023-02-18T03:38:38.838Z,17.25
2023-02-18T03:41:06.482Z,14.93
2023-02-18T03:43:34.226Z,15.13
2023-02-18T03:46:02.380Z,15.20
2023-02-18T03:48:29.311Z,9.23
2023-02-18T03:50:55.895Z,9.70
2023-02-18T03:53:22.959Z,13.05
2023-02-18T03:55:50.184Z,15.57
2023-02-18T03:58:16.784Z,20.13
2023-02-18T04:00:43.394Z,18.42
2023-02-18T04:03:10.149Z,16.27
2023-02-18T04:05:36.736Z,18.15
2023-02-18T04:08:03.296Z,16.83
2023-02-18T04:10:29.816Z,17.05
2023-02-18T04:12:56.411Z,12.25
2023-02-18T04:15:22.946Z,12.07
2023-02-18T04:17:50.097Z,12.38
2023-02-18T04:20:16.683Z,13.50
2023-02-18T04:22:43.251Z,11.32
2023-02-18T04:25:09.811Z,12.32
2023-02-18T04:27:36.382Z,10.98
2023-02-18T04:30:04.993Z,10.18
2023-02-18T04:32:31.682Z,9.27
2023-02-18T04:34:58.268Z,9.23
2023-02-18T04:37:25.028Z,10.32
2023-02-18T04:39:51.626Z,12.48
2023-02-18T04:42:18.173Z,12.10
2023-02-18T04:44:47.021Z,13.73
2023-02-18T04:47:14.083Z,9.48
2023-02-18T04:49:40.664Z,11.57
2023-02-18T04:52:07.218Z,8.25
2023-02-18T04:54:33.825Z,7.88
2023-02-18T04:57:00.389Z,8.10
2023-02-18T04:59:26.942Z,8.70
2023-02-18T05:01:53.484Z,6.82
2023-02-18T05:04:20.192Z,7.05
2023-02-18T05:06:46.753Z,3.55
2023-02-18T05:09:13.437Z,6.80
2023-02-18T05:11:40.201Z,5.15
2023-02-18T05:14:06.795Z,6.45
2023-02-18T05:16:33.408Z,4.20
2023-02-18T05:19:00.123Z,4.28
2023-02-18T05:21:26.799Z,2.63
2023-02-18T05:23:53.404Z,3.55
2023-02-18T05:26:20.105Z,1.95
2023-02-18T05:28:46.707Z,3.45
2023-02-18T05:31:13.294Z,2.60
2023-02-18T05:33:39.999Z,2.45
2023-02-18T05:36:07.165Z,1.63
2023-02-18T05:38:33.995Z,2.05
2023-02-18T05:41:01.399Z,2.42
2023-02-18T05:43:27.994Z,3.30
2023-02-18T05:45:54.476Z,2.35
2023-02-18T05:48:21.068Z,2.00
2023-02-18T05:50:47.604Z,2.15
2023-02-18T05:53:16.092Z,1.92
2023-02-18T05:55:43.904Z,2.38
2023-02-18T05:58:10.509Z,1.60
2023-02-18T06:00:37.030Z,3.22
2023-02-18T06:03:03.743Z,3.10
2023-02-18T06:05:30.351Z,3.13
2023-02-18T06:07:56.980Z,2.78
2023-02-18T06:10:23.493Z,2.65
2023-02-18T06:12:50.216Z,2.60
2023-02-18T06:15:16.868Z,2.03
2023-02-18T06:17:43.407Z,2.78
2023-02-18T06:20:10.440Z,5.95
2023-02-18T06:22:37.007Z,3.88
2023-02-18T06:25:03.613Z,8.48
2023-02-18T06:27:30.246Z,4.53
2023-02-18T06:29:56.762Z,4.35
2023-02-18T06:32:23.401Z,3.83
2023-02-18T06:34:50.006Z,5.07
2023-02-18T06:37:16.568Z,4.97
2023-02-18T06:39:43.065Z,3.20
2023-02-18T06:42:09.602Z,3.50
2023-02-18T06:44:37.912Z,3.63
2023-02-18T06:47:04.748Z,3.10
2023-02-18T06:49:31.498Z,3.08
2023-02-18T06:51:58.056Z,3.53
2023-02-18T06:54:25.286Z,2.53
2023-02-18T06:56:51.909Z,2.40
2023-02-18T06:59:18.400Z,2.00
2023-02-18T07:01:44.925Z,3.03
2023-02-18T07:04:11.416Z,3.35
2023-02-18T07:06:38.045Z,1.70
2023-02-18T07:09:05.589Z,2.42
2023-02-18T07:11:32.179Z,2.22
2023-02-18T07:13:58.764Z,1.55
2023-02-18T07:16:25.521Z,2.05
2023-02-18T07:18:52.109Z,3.13
2023-02-18T07:21:18.754Z,3.20
2023-02-18T07:23:45.301Z,3.10
2023-02-18T07:26:14.216Z,3.88
2023-02-18T07:28:41.811Z,5.20
2023-02-18T07:31:09.023Z,5.13
2023-02-18T07:33:35.681Z,4.07
2023-02-18T07:36:03.398Z,5.95
2023-02-18T07:38:30.703Z,3.15
2023-02-18T07:40:58.351Z,4.22
2023-02-18T07:43:25.335Z,7.07
2023-02-18T07:45:52.093Z,6.60
2023-02-18T07:48:18.778Z,10.05
2023-02-18T07:50:46.567Z,5.55
2023-02-18T07:53:15.131Z,5.10
2023-02-18T07:55:51.151Z,7.05
2023-02-18T07:58:23.821Z,3.55
2023-02-18T08:00:51.450Z,3.03
2023-02-18T08:03:18.624Z,6.10
2023-02-18T08:05:45.419Z,3.90
2023-02-18T08:08:16.991Z,4.75
2023-02-18T08:10:44.042Z,4.72
2023-02-18T08:13:10.706Z,6.78
2023-02-18T08:15:37.731Z,5.00
2023-02-18T08:18:05.404Z,6.13
2023-02-18T08:20:35.412Z,6.10
2023-02-18T08:23:02.074Z,3.60
2023-02-18T08:25:29.894Z,3.55
2023-02-18T08:27:57.369Z,4.03
2023-02-18T08:30:23.998Z,4.90
2023-02-18T08:32:51.028Z,2.88
2023-02-18T08:35:17.630Z,4.60
2023-02-18T08:37:53.753Z,2.88
2023-02-18T08:40:21.743Z,2.33
2023-02-18T08:42:48.409Z,2.80
2023-02-18T08:45:14.995Z,2.05
2023-02-18T08:48:17.728Z,4.78
2023-02-18T08:50:28.189Z,5.05
2023-02-18T08:52:54.814Z,2.28
2023-02-18T08:55:21.590Z,4.72
2023-02-18T08:57:48.721Z,5.57
2023-02-18T09:00:17.134Z,4.82
2023-02-18T09:02:44.116Z,3.97
2023-02-18T09:05:11.224Z,4.55
2023-02-18T09:07:37.959Z,4.95
2023-02-18T09:10:05.398Z,2.47
2023-02-18T09:12:32.289Z,3.58
2023-02-18T09:14:59.102Z,6.32
2023-02-18T09:17:25.663Z,4.90
2023-02-18T09:19:53.493Z,7.07
2023-02-18T09:22:20.098Z,5.30
2023-02-18T09:24:46.844Z,5.43
2023-02-18T09:27:13.706Z,6.45
2023-02-18T09:29:41.480Z,6.32
2023-02-18T09:32:09.220Z,12.35
2023-02-18T09:34:36.709Z,5.35
2023-02-18T09:37:03.879Z,6.45
2023-02-18T09:39:30.525Z,5.43
2023-02-18T09:42:00.373Z,5.85
2023-02-18T09:44:44.008Z,5.40
2023-02-18T09:47:16.206Z,3.90
2023-02-18T09:49:52.162Z,5.45
2023-02-18T09:52:25.636Z,8.70
2023-02-18T09:54:52.367Z,12.07
2023-02-18T09:57:41.261Z,5.28
2023-02-18T10:00:15.629Z,5.13
2023-02-18T10:02:57.786Z,4.95
2023-02-18T10:05:28.120Z,6.88
2023-02-18T10:08:00.508Z,9.35
2023-02-18T10:10:43.477Z,14.35
2023-02-18T10:13:19.149Z,9.68
2023-02-18T10:15:46.718Z,8.45
2023-02-18T10:18:32.522Z,11.88
2023-02-18T10:24:10.942Z,6.40
2023-02-18T10:26:38.329Z,4.22
2023-02-18T10:29:13.792Z,12.27
2023-02-18T10:34:53.720Z,6.80
2023-02-18T10:37:26.344Z,10.80
2023-02-18T10:40:24.720Z,8.05
2023-02-18T10:43:28.327Z,2.95
2023-02-18T10:46:06.926Z,3.00
2023-02-18T10:48:54.975Z,7.78
2023-02-18T10:51:25.891Z,2.88
2023-02-18T10:53:53.885Z,9.07
2023-02-18T10:56:48.457Z,6.95
2023-02-18T10:59:23.925Z,7.30
2023-02-18T11:02:17.335Z,3.10
2023-02-18T11:04:45.686Z,3.90
2023-02-18T11:07:15.732Z,4.03
2023-02-18T11:09:48.030Z,5.88
2023-02-18T11:12:23.076Z,8.75
2023-02-18T11:15:04.979Z,4.38
2023-02-18T11:17:33.774Z,6.65
2023-02-18T11:20:02.317Z,4.82
2023-02-18T11:22:36.758Z,7.93
2023-02-18T11:25:18.867Z,9.65
2023-02-18T11:27:49.772Z,9.88
2023-02-18T11:30:22.759Z,3.10
2023-02-18T11:32:53.562Z,3.22
2023-02-18T11:35:23.793Z,2.88
2023-02-18T11:37:51.564Z,4.85
2023-02-18T11:40:36.329Z,6.57
2023-02-18T11:43:15.196Z,5.95
2023-02-18T11:45:42.280Z,5.75
2023-02-18T11:48:16.442Z,5.63
2023-02-18T11:50:44.016Z,5.18
2023-02-18T11:53:35.289Z,7.35
2023-02-18T11:56:20.198Z,8.98
2023-02-18T11:58:48.483Z,3.97
2023-02-18T12:01:41.387Z,3.80
2023-02-18T12:04:13.234Z,5.88
2023-02-18T12:06:39.773Z,12.00
2023-02-18T12:09:36.448Z,7.30
2023-02-18T12:12:16.496Z,4.22
2023-02-18T12:14:43.796Z,5.22
2023-02-18T12:17:30.852Z,5.13
2023-02-18T12:20:14.967Z,5.57
2023-02-18T12:22:44.322Z,6.45
2023-02-18T12:25:25.142Z,9.35
2023-02-18T12:28:11.746Z,3.80
2023-02-18T12:30:50.453Z,6.72
2023-02-18T12:33:46.772Z,3.03
2023-02-18T12:39:45.008Z,4.30
2023-02-18T12:42:19.495Z,4.38
2023-02-18T12:45:02.008Z,2.50
2023-02-18T12:47:39.692Z,3.95
2023-02-18T12:50:28.209Z,4.53
2023-02-18T12:53:13.096Z,3.47
2023-02-18T12:55:48.645Z,4.95
2023-02-18T13:01:11.829Z,3.45
2023-02-18T13:04:10.215Z,2.45
2023-02-18T13:06:50.306Z,4.53
2023-02-18T13:09:32.139Z,7.20
2023-02-18T13:12:24.257Z,4.35
2023-02-18T13:15:18.979Z,2.70
2023-02-18T13:17:47.360Z,4.63
2023-02-18T13:20:14.487Z,4.95
2023-02-18T13:22:41.760Z,6.35
2023-02-18T13:25:13.422Z,5.00
2023-02-18T13:28:05.104Z,4.10
2023-02-18T13:30:40.511Z,4.65
2023-02-18T13:35:52.214Z,5.10
2023-02-18T13:38:46.160Z,3.83
2023-02-18T13:41:12.757Z,4.82
2023-02-18T13:48:27.863Z,3.38
2023-02-18T13:51:00.479Z,4.32
2023-02-18T13:53:31.856Z,4.75
2023-02-18T13:56:05.371Z,4.55
2023-02-18T13:58:49.510Z,16.85
2023-02-18T14:01:31.918Z,5.68
2023-02-18T14:04:00.450Z,4.60
2023-02-18T14:06:33.490Z,4.65
2023-02-18T14:09:12.368Z,10.13
2023-02-18T14:11:49.692Z,6.57
2023-02-18T14:14:25.995Z,8.90
2023-02-18T14:17:14.669Z,5.05
2023-02-18T14:19:41.284Z,6.90
2023-02-18T14:22:28.274Z,8.10
2023-02-18T14:25:10.849Z,6.00
2023-02-18T14:27:42.518Z,5.03
2023-02-18T14:30:21.360Z,6.30
2023-02-18T14:32:50.716Z,8.73
2023-02-18T14:35:42.903Z,7.68
2023-02-18T14:38:28.453Z,8.45
2023-02-18T14:41:13.867Z,4.18
2023-02-18T14:43:49.337Z,6.93
2023-02-18T14:49:12.562Z,6.25
2023-02-18T14:51:43.314Z,5.57
2023-02-18T14:54:16.253Z,6.32
2023-02-18T14:57:03.899Z,6.55
2023-02-18T14:59:35.325Z,7.47
2023-02-18T15:02:02.003Z,4.10
2023-02-18T15:04:29.129Z,8.20
2023-02-18T15:07:04.592Z,5.60
2023-02-18T15:12:06.567Z,6.40
2023-02-18T15:14:39.660Z,7.40
2023-02-18T15:17:11.596Z,4.30
2023-02-18T15:19:42.936Z,7.70
2023-02-18T15:22:22.048Z,5.95
2023-02-18T15:24:50.693Z,5.40
2023-02-18T15:27:23.744Z,3.58
2023-02-18T15:29:52.816Z,4.70
2023-02-18T15:32:24.050Z,6.30
2023-02-18T15:34:53.156Z,5.43
2023-02-18T15:37:20.463Z,4.10
2023-02-18T15:39:47.729Z,6.28
2023-02-18T15:42:23.793Z,8.25
2023-02-18T15:44:55.867Z,4.60
2023-02-18T15:47:23.677Z,7.63
2023-02-18T15:49:54.174Z,6.95
2023-02-18T15:52:30.486Z,6.15
2023-02-18T15:55:03.140Z,8.68
2023-02-18T15:57:30.586Z,8.15
2023-02-18T16:00:18.713Z,5.80
2023-02-18T16:03:22.630Z,6.40
2023-02-18T16:05:50.769Z,3.22
2023-02-18T16:08:25.454Z,7.10
2023-02-18T16:11:06.548Z,7.75
2023-02-18T16:13:35.265Z,12.63
2023-02-18T16:16:02.023Z,6.68
2023-02-18T16:18:34.897Z,9.93
2023-02-18T16:21:43.856Z,5.80
2023-02-18T16:24:28.593Z,7.28
2023-02-18T16:27:00.039Z,9.73
2023-02-18T16:29:35.134Z,11.48
2023-02-18T16:32:02.003Z,5.13
2023-02-18T16:34:28.968Z,5.65
2023-02-18T16:37:14.169Z,9.43
2023-02-18T16:39:41.041Z,7.57
2023-02-18T16:42:11.402Z,6.90
2023-02-18T16:44:38.796Z,12.13
2023-02-18T16:47:06.260Z,12.48
2023-02-18T16:49:34.291Z,7.60
2023-02-18T16:52:06.696Z,14.55
2023-02-18T16:54:34.481Z,15.05
2023-02-18T16:57:00.966Z,6.95
2023-02-18T16:59:27.545Z,7.00
2023-02-18T17:01:55.902Z,9.93
2023-02-18T17:04:23.441Z,11.38
2023-02-18T17:06:50.083Z,11.02
2023-02-18T17:09:18.136Z,10.68
2023-02-18T17:11:46.366Z,6.78
2023-02-18T17:14:17.996Z,9.18
2023-02-18T17:16:46.329Z,7.78
2023-02-18T17:19:13.103Z,12.88
2023-02-18T17:21:39.976Z,12.63
2023-02-18T17:24:14.795Z,9.65
2023-02-18T17:26:41.855Z,14.00
2023-02-18T17:29:08.806Z,9.68
2023-02-18T17:31:47.192Z,11.75
2023-02-18T17:34:21.708Z,9.73
2023-02-18T17:36:48.323Z,9.18
2023-02-18T17:39:17.651Z,10.50
2023-02-18T17:41:44.598Z,8.70
2023-02-18T17:44:19.571Z,7.00
2023-02-18T17:46:46.638Z,17.08
2023-02-18T17:49:13.407Z,9.23
2023-02-18T17:51:40.145Z,11.57
2023-02-18T17:54:17.464Z,9.38
2023-02-18T17:56:45.071Z,7.38
2023-02-18T17:59:12.016Z,10.77
2023-02-18T18:01:38.979Z,12.90
2023-02-18T18:04:13.233Z,16.02
2023-02-18T18:06:40.091Z,11.85
2023-02-18T18:09:06.890Z,11.52
2023-02-18T18:11:33.986Z,11.40
2023-02-18T18:14:01.121Z,12.48
2023-02-18T18:16:31.548Z,8.98
2023-02-18T18:18:58.141Z,9.95
2023-02-18T18:21:35.487Z,7.05
2023-02-18T18:24:02.530Z,13.32
2023-02-18T18:26:30.000Z,12.20
2023-02-18T18:28:56.969Z,12.00
2023-02-18T18:31:23.708Z,9.55
2023-02-18T18:33:52.998Z,10.30
2023-02-18T18:36:20.898Z,10.02
2023-02-18T18:38:47.451Z,10.70
2023-02-18T18:41:19.438Z,10.50
2023-02-18T18:43:46.821Z,12.15
2023-02-18T18:46:13.545Z,9.68
2023-02-18T18:48:40.311Z,13.73
2023-02-18T18:51:07.361Z,16.13
2023-02-18T18:53:35.561Z,11.98
2023-02-18T18:56:06.992Z,16.33
2023-02-18T18:58:34.062Z,10.68
2023-02-18T19:01:03.286Z,11.18
2023-02-18T19:03:31.245Z,12.13
2023-02-18T19:05:57.930Z,12.23
2023-02-18T19:08:24.936Z,11.73
2023-02-18T19:10:54.068Z,11.25
2023-02-18T19:13:29.470Z,13.07
2023-02-18T19:16:19.298Z,11.32
2023-02-18T19:18:47.060Z,12.32
2023-02-18T19:21:13.860Z,10.85
2023-02-18T19:23:40.736Z,11.32
2023-02-18T19:26:08.361Z,12.88
2023-02-18T19:28:35.366Z,13.77
2023-02-18T19:31:02.097Z,17.02
2023-02-18T19:33:28.863Z,11.35
2023-02-18T19:35:55.538Z,10.27
2023-02-18T19:38:22.173Z,10.55
2023-02-18T19:40:49.049Z,11.93
2023-02-18T19:43:16.053Z,11.70
2023-02-18T19:45:45.325Z,10.02
2023-02-18T19:48:13.264Z,8.82
2023-02-18T19:50:41.719Z,7.75
2023-02-18T19:53:09.124Z,8.73
2023-02-18T19:55:35.800Z,10.90
2023-02-18T19:58:02.455Z,12.60
2023-02-18T20:00:28.985Z,10.48
2023-02-18T20:02:55.629Z,9.10
2023-02-18T20:05:22.287Z,13.15
2023-02-18T20:07:48.929Z,8.63
2023-02-18T20:10:17.816Z,7.43
2023-02-18T20:12:44.549Z,11.95
2023-02-18T20:15:11.394Z,13.93
2023-02-18T20:17:39.180Z,14.93
2023-02-18T20:20:07.066Z,12.68
2023-02-18T20:22:33.925Z,12.48
2023-02-18T20:25:00.492Z,15.60
2023-02-18T20:27:27.055Z,14.68
2023-02-18T20:29:53.668Z,13.38
2023-02-18T20:32:20.357Z,15.68
2023-02-18T20:34:47.046Z,21.42
2023-02-18T20:37:13.803Z,16.00
2023-02-18T20:39:40.445Z,19.33
2023-02-18T20:42:15.834Z,14.32
2023-02-18T20:44:42.880Z,18.30
2023-02-18T20:47:09.405Z,16.05
2023-02-18T20:49:36.012Z,19.65
2023-02-18T20:52:02.604Z,11.65
2023-02-18T20:54:29.413Z,13.30
2023-02-18T20:56:55.937Z,14.20
2023-02-18T20:59:22.605Z,15.25
2023-02-18T21:01:49.549Z,12.00
2023-02-18T21:04:18.523Z,12.60
2023-02-18T21:06:45.584Z,13.52
2023-02-18T21:09:13.680Z,11.00
2023-02-18T21:11:40.696Z,9.85
2023-02-18T21:14:07.538Z,15.38
2023-02-18T21:16:38.493Z,12.95
2023-02-18T21:19:12.228Z,13.80
2023-02-18T21:21:39.101Z,13.45
2023-02-18T21:24:06.132Z,18.52
2023-02-18T21:26:33.289Z,14.02
2023-02-18T21:29:01.929Z,14.38
2023-02-18T21:31:34.783Z,19.48
2023-02-18T21:34:02.044Z,12.30
2023-02-18T21:36:30.362Z,10.40
2023-02-18T21:39:00.163Z,11.05
2023-02-18T21:41:27.860Z,13.68
2023-02-18T21:43:55.114Z,12.88
2023-02-18T21:46:26.876Z,22.48
2023-02-18T21:49:03.399Z,13.98
2023-02-18T21:51:53.864Z,18.52
2023-02-18T21:54:32.263Z,18.23
2023-02-18T21:57:00.693Z,16.15
2023-02-18T21:59:29.689Z,15.75
2023-02-18T22:01:59.622Z,17.00
2023-02-18T22:04:26.926Z,15.45
2023-02-18T22:06:53.491Z,18.70
2023-02-18T22:09:20.087Z,21.08
2023-02-18T22:11:46.673Z,17.83
2023-02-18T22:14:14.644Z,17.98
2023-02-18T22:16:41.648Z,16.10
2023-02-18T22:19:10.778Z,16.48
2023-02-18T22:21:37.597Z,18.67
2023-02-18T22:24:05.822Z,19.83
2023-02-18T22:26:32.915Z,14.13
2023-02-18T22:29:00.767Z,16.90
2023-02-18T22:31:29.721Z,14.80
2023-02-18T22:33:59.604Z,16.13
2023-02-18T22:36:28.153Z,16.40
2023-02-18T22:38:55.237Z,15.00
2023-02-18T22:41:23.984Z,17.48
2023-02-18T22:43:59.129Z,19.65
2023-02-18T22:46:26.994Z,15.75
2023-02-18T22:48:55.888Z,15.68
2023-02-18T22:51:28.852Z,23.55
2023-02-18T22:53:57.278Z,20.10
2023-02-18T22:56:25.809Z,15.95
2023-02-18T22:58:54.104Z,17.65
2023-02-18T23:01:35.967Z,21.25
2023-02-18T23:04:08.998Z,19.35
2023-02-18T23:06:37.011Z,17.05
2023-02-18T23:09:05.014Z,16.65
2023-02-18T23:11:31.673Z,15.68
2023-02-18T23:14:16.883Z,17.63
2023-02-18T23:17:03.584Z,12.07
2023-02-18T23:19:32.166Z,18.73
2023-02-18T23:21:59.264Z,15.25
2023-02-18T23:24:25.863Z,14.07
2023-02-18T23:26:52.523Z,13.07
2023-02-18T23:29:19.571Z,12.88
2023-02-18T23:31:46.216Z,12.75
2023-02-18T23:34:14.913Z,16.00
2023-02-18T23:36:42.951Z,15.25
2023-02-18T23:39:13.303Z,12.43
2023-02-18T23:41:40.081Z,13.07
2023-02-18T23:44:09.836Z,17.42
2023-02-18T23:46:37.136Z,12.00
2023-02-18T23:49:04.981Z,10.85
2023-02-18T23:51:32.131Z,14.13
2023-02-18T23:54:01.502Z,9.82
2023-02-18T23:56:28.798Z,12.57
2023-02-18T23:59:00.498Z,9.43
